createdAt,value
2018-09-03T00:01:55.017Z,10.57
2018-09-03T00:04:22.882Z,10.53
2018-09-03T00:06:50.766Z,10.50
2018-09-03T00:09:18.686Z,10.48
2018-09-03T00:11:46.587Z,10.46
2018-09-03T00:14:14.666Z,10.43
2018-09-03T00:16:42.559Z,10.42
2018-09-03T00:19:10.447Z,10.40
2018-09-03T00:21:38.385Z,10.38
2018-09-03T00:24:06.203Z,10.35
2018-09-03T00:26:33.880Z,10.29
2018-09-03T00:29:01.626Z,10.20
2018-09-03T00:31:34.793Z,10.17
2018-09-03T00:34:08.093Z,10.14
2018-09-03T00:36:41.288Z,10.10
2018-09-03T00:39:14.579Z,10.05
2018-09-03T00:41:47.780Z,9.98
2018-09-03T00:44:20.975Z,9.92
2018-09-03T00:46:54.199Z,9.88
2018-09-03T00:49:22.133Z,9.85
2018-09-03T00:51:49.818Z,9.86
2018-09-03T00:54:17.517Z,9.85
2018-09-03T00:56:45.263Z,9.80
2018-09-03T00:59:12.969Z,9.74
2018-09-03T01:01:40.679Z,9.70
2018-09-03T01:04:08.465Z,9.71
2018-09-03T01:06:36.175Z,9.70
2018-09-03T01:09:05.011Z,9.69
2018-09-03T01:11:32.743Z,9.69
2018-09-03T01:14:00.443Z,9.67
2018-09-03T01:16:28.211Z,9.67
2018-09-03T01:18:56.644Z,9.66
2018-09-03T01:21:25.333Z,9.66
2018-09-03T01:23:53.467Z,9.63
2018-09-03T01:26:21.177Z,9.59
2018-09-03T01:28:48.897Z,9.59
2018-09-03T01:31:19.583Z,9.55
2018-09-03T01:33:49.489Z,9.51
2018-09-03T01:36:17.625Z,9.46
2018-09-03T01:38:45.373Z,9.43
2018-09-03T01:41:13.233Z,9.37
2018-09-03T01:43:40.944Z,9.30
2018-09-03T01:48:43.257Z,9.25
2018-09-03T01:51:11.009Z,9.20
2018-09-03T01:53:38.956Z,9.17
2018-09-03T01:56:07.364Z,9.12
2018-09-03T01:58:35.082Z,9.08
2018-09-03T02:01:03.009Z,9.05
2018-09-03T02:03:30.776Z,9.00
2018-09-03T02:05:58.501Z,8.95
2018-09-03T02:08:26.347Z,8.90
2018-09-03T02:10:54.056Z,8.87
2018-09-03T02:13:21.859Z,8.80
2018-09-03T02:15:49.596Z,8.78
2018-09-03T02:18:17.364Z,8.75
2018-09-03T02:20:45.131Z,8.74
2018-09-03T02:23:12.875Z,8.71
2018-09-03T02:25:40.604Z,8.67
2018-09-03T02:28:08.345Z,8.62
2018-09-03T02:30:36.188Z,8.60
2018-09-03T02:33:04.151Z,8.59
2018-09-03T02:35:31.847Z,8.58
2018-09-03T02:37:59.545Z,8.59
2018-09-03T02:40:27.285Z,8.57
2018-09-03T02:42:55.051Z,8.54
2018-09-03T02:45:22.715Z,8.49
2018-09-03T02:47:50.393Z,8.44
2018-09-03T02:50:18.173Z,8.43
2018-09-03T02:52:45.867Z,8.42
2018-09-03T02:55:13.592Z,8.40
2018-09-03T02:57:41.323Z,8.37
2018-09-03T03:00:09.120Z,8.35
2018-09-03T03:02:36.839Z,8.34
2018-09-03T03:05:05.113Z,8.30
2018-09-03T03:07:32.830Z,8.25
2018-09-03T03:10:00.548Z,8.25
2018-09-03T03:12:28.341Z,8.29
2018-09-03T03:14:56.985Z,8.30
2018-09-03T03:17:24.796Z,8.28
2018-09-03T03:19:52.539Z,8.25
2018-09-03T03:22:20.452Z,8.26
2018-09-03T03:24:48.327Z,8.29
2018-09-03T03:27:16.404Z,8.07
2018-09-03T03:29:44.190Z,8.28
2018-09-03T03:32:11.936Z,8.21
2018-09-03T03:34:39.623Z,8.22
2018-09-03T03:37:07.708Z,8.19
2018-09-03T03:39:35.482Z,8.18
2018-09-03T03:42:03.190Z,8.17
2018-09-03T03:44:30.902Z,8.17
2018-09-03T03:46:58.716Z,8.17
2018-09-03T03:49:26.468Z,8.15
2018-09-03T03:51:54.202Z,8.15
2018-09-03T03:54:21.928Z,8.10
2018-09-03T03:56:49.732Z,8.06
2018-09-03T03:59:17.413Z,8.02
2018-09-03T04:01:45.193Z,8.02
2018-09-03T04:04:12.877Z,8.02
2018-09-03T04:06:40.592Z,8.02
2018-09-03T04:09:09.779Z,8.12
2018-09-03T04:11:37.545Z,8.23
2018-09-03T04:14:05.247Z,8.31
2018-09-03T04:16:32.961Z,8.41
2018-09-03T04:19:00.644Z,8.49
2018-09-03T04:21:28.361Z,8.54
2018-09-03T04:23:56.233Z,8.61
2018-09-03T04:26:23.944Z,8.66
2018-09-03T04:28:51.775Z,8.73
2018-09-03T04:31:19.680Z,8.79
2018-09-03T04:33:47.421Z,8.89
2018-09-03T04:36:15.178Z,8.96
2018-09-03T04:38:43.026Z,9.07
2018-09-03T04:41:10.752Z,9.13
2018-09-03T04:43:38.480Z,9.19
2018-09-03T04:46:06.340Z,9.29
2018-09-03T04:48:34.124Z,9.42
2018-09-03T04:51:01.843Z,9.55
2018-09-03T04:53:29.641Z,9.66
2018-09-03T04:55:57.348Z,9.77
2018-09-03T04:58:25.090Z,9.90
2018-09-03T05:00:52.816Z,10.00
2018-09-03T05:03:20.549Z,10.09
2018-09-03T05:05:48.346Z,10.16
2018-09-03T05:08:16.120Z,10.27
2018-09-03T05:10:43.924Z,10.43
2018-09-03T05:13:11.607Z,10.56
2018-09-03T05:15:39.334Z,10.70
2018-09-03T05:18:07.124Z,10.85
2018-09-03T05:20:34.984Z,10.98
2018-09-03T05:23:02.776Z,11.13
2018-09-03T05:25:30.492Z,11.27
2018-09-03T05:27:58.200Z,11.41
2018-09-03T05:30:25.920Z,11.59
2018-09-03T05:32:53.734Z,11.72
2018-09-03T05:35:21.424Z,11.92
2018-09-03T05:37:49.146Z,12.17
2018-09-03T05:40:16.891Z,12.38
2018-09-03T05:42:44.564Z,12.65
2018-09-03T05:45:12.285Z,12.96
2018-09-03T05:47:40.017Z,13.33
2018-09-03T05:50:07.768Z,13.57
2018-09-03T05:52:35.495Z,13.81
2018-09-03T05:55:03.232Z,14.26
2018-09-03T05:57:30.934Z,14.56
2018-09-03T05:59:58.640Z,14.97
2018-09-03T06:02:26.349Z,15.50
2018-09-03T06:04:54.138Z,15.99
2018-09-03T06:07:21.884Z,16.15
2018-09-03T06:09:49.588Z,16.49
2018-09-03T06:12:17.309Z,16.60
2018-09-03T06:14:45.045Z,16.79
2018-09-03T06:17:12.735Z,16.93
2018-09-03T06:19:40.444Z,17.17
2018-09-03T06:22:08.325Z,17.45
2018-09-03T06:24:36.080Z,17.43
2018-09-03T06:27:03.799Z,17.78
2018-09-03T06:29:31.583Z,17.99
2018-09-03T06:31:59.289Z,18.04
2018-09-03T06:34:27.000Z,17.72
2018-09-03T06:36:54.761Z,17.99
2018-09-03T06:39:22.484Z,18.33
2018-09-03T06:41:50.207Z,18.81
2018-09-03T06:44:17.941Z,19.25
2018-09-03T06:46:45.738Z,19.44
2018-09-03T06:49:13.576Z,19.83
2018-09-03T06:51:41.300Z,20.17
2018-09-03T06:54:09.148Z,20.43
2018-09-03T06:56:37.947Z,20.60
2018-09-03T06:59:05.736Z,20.84
2018-09-03T07:01:34.099Z,20.90
2018-09-03T07:04:01.860Z,20.87
2018-09-03T07:06:29.591Z,21.17
2018-09-03T07:08:57.412Z,21.53
2018-09-03T07:11:25.163Z,21.89
2018-09-03T07:13:52.893Z,22.19
2018-09-03T07:16:20.615Z,22.44
2018-09-03T07:18:48.346Z,22.57
2018-09-03T07:21:16.102Z,22.62
2018-09-03T07:23:43.804Z,22.62
2018-09-03T07:26:11.660Z,22.95
2018-09-03T07:28:39.455Z,23.33
2018-09-03T07:31:07.167Z,23.58
2018-09-03T07:33:34.985Z,23.66
2018-09-03T07:36:02.738Z,23.71
2018-09-03T07:38:30.507Z,23.76
2018-09-03T07:40:58.281Z,23.83
2018-09-03T07:43:26.123Z,23.91
2018-09-03T07:45:53.892Z,23.76
2018-09-03T07:48:21.626Z,23.44
2018-09-03T07:50:49.380Z,23.99
2018-09-03T07:53:17.095Z,24.15
2018-09-03T07:55:44.808Z,24.28
2018-09-03T07:58:12.548Z,24.56
2018-09-03T08:00:40.313Z,24.73
2018-09-03T08:03:08.061Z,24.93
2018-09-03T08:05:35.809Z,25.15
2018-09-03T08:08:03.588Z,25.02
2018-09-03T08:10:31.375Z,24.87
2018-09-03T08:12:59.153Z,24.70
2018-09-03T08:15:26.891Z,24.65
2018-09-03T08:17:54.622Z,24.87
2018-09-03T08:20:22.409Z,25.13
2018-09-03T08:22:50.151Z,25.14
2018-09-03T08:25:17.870Z,24.89
2018-09-03T08:27:45.624Z,25.07
2018-09-03T08:30:13.366Z,25.09
2018-09-03T08:32:41.220Z,25.11
2018-09-03T08:35:09.125Z,24.94
2018-09-03T08:37:36.841Z,24.70
2018-09-03T08:40:04.817Z,24.53
2018-09-03T08:42:32.639Z,24.41
2018-09-03T08:45:00.393Z,24.69
2018-09-03T08:47:28.107Z,24.84
2018-09-03T08:49:56.022Z,24.68
2018-09-03T08:52:23.790Z,24.46
2018-09-03T08:54:51.544Z,24.84
2018-09-03T08:57:19.270Z,24.86
2018-09-03T08:59:47.125Z,25.09
2018-09-03T09:02:14.842Z,25.10
2018-09-03T09:04:42.605Z,25.16
2018-09-03T09:07:10.443Z,24.79
2018-09-03T09:09:38.256Z,24.91
2018-09-03T09:12:05.988Z,24.95
2018-09-03T09:14:33.777Z,25.16
2018-09-03T09:17:01.503Z,25.04
2018-09-03T09:19:29.278Z,24.99
2018-09-03T09:21:57.035Z,25.01
2018-09-03T09:24:24.765Z,24.88
2018-09-03T09:26:52.520Z,24.78
2018-09-03T09:29:20.337Z,24.90
2018-09-03T09:31:48.050Z,25.05
2018-09-03T09:34:15.767Z,25.13
2018-09-03T09:36:43.576Z,25.37
2018-09-03T09:39:11.304Z,25.49
2018-09-03T09:41:39.052Z,25.32
2018-09-03T09:44:06.770Z,25.38
2018-09-03T09:46:34.594Z,25.48
2018-09-03T09:49:02.340Z,25.24
2018-09-03T09:51:30.072Z,25.20
2018-09-03T09:53:58.293Z,25.00
2018-09-03T09:56:26.420Z,24.91
2018-09-03T09:58:54.365Z,25.20
2018-09-03T10:01:27.848Z,25.27
2018-09-03T10:03:55.681Z,24.84
2018-09-03T10:06:23.489Z,24.88
2018-09-03T10:08:51.228Z,24.72
2018-09-03T10:11:18.969Z,24.81
2018-09-03T10:13:46.723Z,24.51
2018-09-03T10:16:14.475Z,24.46
2018-09-03T10:18:42.244Z,24.72
2018-09-03T10:21:10.066Z,24.86
2018-09-03T10:23:37.760Z,24.76
2018-09-03T10:26:05.496Z,24.68
2018-09-03T10:28:33.212Z,24.40
2018-09-03T10:31:01.005Z,24.51
2018-09-03T10:33:28.683Z,24.60
2018-09-03T10:35:56.451Z,24.57
2018-09-03T10:38:24.165Z,24.83
2018-09-03T10:40:51.868Z,24.81
2018-09-03T10:43:19.594Z,24.48
2018-09-03T10:45:47.353Z,24.33
2018-09-03T10:48:16.448Z,24.54
2018-09-03T10:50:44.512Z,24.69
2018-09-03T10:53:12.194Z,24.85
2018-09-03T10:55:40.506Z,25.08
2018-09-03T10:58:08.644Z,25.13
2018-09-03T11:00:36.356Z,24.69
2018-09-03T11:03:04.139Z,24.90
2018-09-03T11:05:31.847Z,24.98
2018-09-03T11:07:59.812Z,25.06
2018-09-03T11:10:27.557Z,25.47
2018-09-03T11:12:55.331Z,25.36
2018-09-03T11:15:23.057Z,25.36
2018-09-03T11:17:50.769Z,25.35
2018-09-03T11:20:23.352Z,25.30
2018-09-03T11:22:51.093Z,25.32
2018-09-03T11:25:18.868Z,25.10
2018-09-03T11:27:47.875Z,25.17
2018-09-03T11:30:15.648Z,25.13
2018-09-03T11:32:47.819Z,24.68
2018-09-03T11:35:15.544Z,24.53
2018-09-03T11:37:43.209Z,24.46
2018-09-03T11:40:10.913Z,24.24
2018-09-03T11:42:38.635Z,24.33
2018-09-03T11:45:06.537Z,24.53
2018-09-03T11:47:34.236Z,24.31
2018-09-03T11:50:01.921Z,24.28
2018-09-03T11:52:29.684Z,24.26
2018-09-03T11:54:57.400Z,24.11
2018-09-03T11:57:25.130Z,24.05
2018-09-03T11:59:52.865Z,23.96
2018-09-03T12:02:20.583Z,23.62
2018-09-03T12:04:48.278Z,23.72
2018-09-03T12:07:16.008Z,23.83
2018-09-03T12:09:43.737Z,23.98
2018-09-03T12:12:11.446Z,24.23
2018-09-03T12:14:41.560Z,24.06
2018-09-03T12:17:09.349Z,24.17
2018-09-03T12:19:37.085Z,23.73
2018-09-03T12:22:04.797Z,23.37
2018-09-03T12:24:32.495Z,23.13
2018-09-03T12:27:00.274Z,23.23
2018-09-03T12:29:27.984Z,23.31
2018-09-03T12:31:55.833Z,23.22
2018-09-03T12:34:23.591Z,23.16
2018-09-03T12:36:51.299Z,22.63
2018-09-03T12:39:19.082Z,22.91
2018-09-03T12:41:46.828Z,23.11
2018-09-03T12:44:14.536Z,23.11
2018-09-03T12:46:42.220Z,22.97
2018-09-03T12:49:09.972Z,22.68
2018-09-03T12:51:37.653Z,22.76
2018-09-03T12:54:05.640Z,23.03
2018-09-03T12:56:33.409Z,22.59
2018-09-03T12:59:01.172Z,22.40
2018-09-03T13:01:28.944Z,22.05
2018-09-03T13:03:56.637Z,21.82
2018-09-03T13:06:24.342Z,21.51
2018-09-03T13:08:52.128Z,21.31
2018-09-03T13:11:19.833Z,21.06
2018-09-03T13:13:47.525Z,20.91
2018-09-03T13:16:15.314Z,20.68
2018-09-03T13:18:43.096Z,20.59
2018-09-03T13:21:10.908Z,20.41
2018-09-03T13:23:38.610Z,20.25
2018-09-03T13:26:06.320Z,20.21
2018-09-03T13:28:34.069Z,19.96
2018-09-03T13:31:01.796Z,19.89
2018-09-03T13:33:29.640Z,19.78
2018-09-03T13:35:57.345Z,19.65
2018-09-03T13:38:25.083Z,19.45
2018-09-03T13:40:52.981Z,19.06
2018-09-03T13:43:20.747Z,18.98
2018-09-03T13:45:48.642Z,18.94
2018-09-03T13:48:16.398Z,18.87
2018-09-03T13:50:50.720Z,18.71
2018-09-03T13:53:18.489Z,18.52
2018-09-03T13:55:46.301Z,18.50
2018-09-03T13:58:14.066Z,18.59
2018-09-03T14:00:41.836Z,18.62
2018-09-03T14:03:09.585Z,18.59
2018-09-03T14:05:37.380Z,18.61
2018-09-03T14:08:05.102Z,18.55
2018-09-03T14:10:32.867Z,18.50
2018-09-03T14:13:00.672Z,18.49
2018-09-03T14:15:28.455Z,18.48
2018-09-03T14:17:56.281Z,18.42
2018-09-03T14:20:24.044Z,18.40
2018-09-03T14:22:51.814Z,18.40
2018-09-03T14:25:19.585Z,18.41
2018-09-03T14:27:47.350Z,18.39
2018-09-03T14:30:15.089Z,18.36
2018-09-03T14:32:42.817Z,18.23
2018-09-03T14:35:10.554Z,18.12
2018-09-03T14:37:38.308Z,17.99
2018-09-03T14:40:06.181Z,16.70
2018-09-03T14:42:34.032Z,17.87
2018-09-03T14:45:01.728Z,17.79
2018-09-03T14:47:29.501Z,17.62
2018-09-03T14:49:57.393Z,17.51
2018-09-03T14:52:25.192Z,17.33
2018-09-03T14:54:53.216Z,17.22
2018-09-03T14:57:21.057Z,17.11
2018-09-03T14:59:48.931Z,17.03
2018-09-03T15:02:16.729Z,16.98
2018-09-03T15:04:44.445Z,16.92
2018-09-03T15:07:12.196Z,16.86
2018-09-03T15:09:39.937Z,16.83
2018-09-03T15:12:07.699Z,16.70
2018-09-03T15:14:35.429Z,16.62
2018-09-03T15:17:03.187Z,16.55
2018-09-03T15:19:30.994Z,16.52
2018-09-03T15:21:58.745Z,16.49
2018-09-03T15:24:26.471Z,16.46
2018-09-03T15:26:54.189Z,16.44
2018-09-03T15:29:21.911Z,16.38
2018-09-03T15:31:49.869Z,16.26
2018-09-03T15:34:17.578Z,16.23
2018-09-03T15:36:45.478Z,16.22
2018-09-03T15:39:13.405Z,16.19
2018-09-03T15:41:41.341Z,16.14
2018-09-03T15:44:09.053Z,16.08
2018-09-03T15:46:36.790Z,16.04
2018-09-03T15:49:04.562Z,16.01
2018-09-03T15:51:32.251Z,15.96
2018-09-03T15:54:00.064Z,15.88
2018-09-03T15:56:27.869Z,15.82
2018-09-03T15:58:55.560Z,15.76
2018-09-03T16:01:23.265Z,15.74
2018-09-03T16:03:51.006Z,15.70
2018-09-03T16:06:18.747Z,15.62
2018-09-03T16:08:46.440Z,15.62
2018-09-03T16:11:14.212Z,15.58
2018-09-03T16:13:41.892Z,15.51
2018-09-03T16:16:09.997Z,15.49
2018-09-03T16:18:37.850Z,15.42
2018-09-03T16:21:05.832Z,15.39
2018-09-03T16:23:33.860Z,15.35
2018-09-03T16:26:01.647Z,15.35
2018-09-03T16:28:29.409Z,15.33
2018-09-03T16:30:57.100Z,15.29
2018-09-03T16:33:25.930Z,15.28
2018-09-03T16:35:53.658Z,15.28
2018-09-03T16:38:21.348Z,15.24
2018-09-03T16:40:49.049Z,15.20
2018-09-03T16:43:16.759Z,15.15
2018-09-03T16:45:44.476Z,15.10
2018-09-03T16:48:12.238Z,15.07
2018-09-03T16:50:39.932Z,15.04
2018-09-03T16:53:07.616Z,14.97
2018-09-03T16:55:35.359Z,14.95
2018-09-03T16:58:03.027Z,14.88
2018-09-03T17:00:30.739Z,14.81
2018-09-03T17:02:58.464Z,14.77
2018-09-03T17:05:26.232Z,14.73
2018-09-03T17:07:53.992Z,14.65
2018-09-03T17:10:21.722Z,14.59
2018-09-03T17:12:49.527Z,14.52
2018-09-03T17:15:17.252Z,14.45
2018-09-03T17:17:45.016Z,14.42
2018-09-03T17:20:12.712Z,14.35
2018-09-03T17:22:40.408Z,14.27
2018-09-03T17:25:08.152Z,14.18
2018-09-03T17:27:35.868Z,14.14
2018-09-03T17:30:03.656Z,14.08
2018-09-03T17:32:31.417Z,14.01
2018-09-03T17:34:59.112Z,13.92
2018-09-03T17:37:26.814Z,13.86
2018-09-03T17:39:54.529Z,13.77
2018-09-03T17:42:22.207Z,13.73
2018-09-03T17:44:50.024Z,13.67
2018-09-03T17:47:17.817Z,13.60
2018-09-03T17:49:45.592Z,13.52
2018-09-03T17:52:13.287Z,13.42
2018-09-03T17:54:41.095Z,13.34
2018-09-03T17:57:08.773Z,13.28
2018-09-03T17:59:36.464Z,13.15
2018-09-03T18:02:04.205Z,13.04
2018-09-03T18:04:31.948Z,12.93
2018-09-03T18:06:59.645Z,12.79
2018-09-03T18:09:27.362Z,12.69
2018-09-03T18:11:55.050Z,12.59
2018-09-03T18:14:22.720Z,12.47
2018-09-03T18:16:50.619Z,12.38
2018-09-03T18:19:18.311Z,12.29
2018-09-03T18:21:46.099Z,12.19
2018-09-03T18:24:13.820Z,12.06
2018-09-03T18:26:41.527Z,11.93
2018-09-03T18:29:09.321Z,11.84
2018-09-03T18:31:37.008Z,11.72
2018-09-03T18:34:04.781Z,11.63
2018-09-03T18:36:32.516Z,11.52
2018-09-03T18:39:00.204Z,11.43
2018-09-03T18:41:27.883Z,11.35
2018-09-03T18:43:55.622Z,11.26
2018-09-03T18:46:23.312Z,11.15
2018-09-03T18:48:51.024Z,11.05
2018-09-03T18:51:18.803Z,10.96
2018-09-03T18:53:46.505Z,10.87
2018-09-03T18:56:14.495Z,10.79
2018-09-03T18:58:42.208Z,10.71
2018-09-03T19:01:09.911Z,10.63
2018-09-03T19:03:37.616Z,10.52
2018-09-03T19:06:05.722Z,10.41
2018-09-03T19:08:33.452Z,10.31
2018-09-03T19:11:01.142Z,10.21
2018-09-03T19:13:29.109Z,10.13
2018-09-03T19:15:56.866Z,10.05
2018-09-03T19:18:24.576Z,9.93
2018-09-03T19:20:52.494Z,9.82
2018-09-03T19:23:20.206Z,9.71
2018-09-03T19:25:47.892Z,9.59
2018-09-03T19:28:15.642Z,9.51
2018-09-03T19:30:43.344Z,9.44
2018-09-03T19:33:11.016Z,9.39
2018-09-03T19:35:38.736Z,9.29
2018-09-03T19:38:06.472Z,9.20
2018-09-03T19:40:34.183Z,9.11
2018-09-03T19:43:01.867Z,8.97
2018-09-03T19:45:29.585Z,8.82
2018-09-03T19:47:57.257Z,8.68
2018-09-03T19:50:24.977Z,8.61
2018-09-03T19:52:52.684Z,8.57
2018-09-03T19:55:20.412Z,8.53
2018-09-03T19:57:48.088Z,8.45
2018-09-03T20:00:15.760Z,8.38
2018-09-03T20:02:43.508Z,8.28
2018-09-03T20:05:11.245Z,8.18
2018-09-03T20:07:39.019Z,8.10
2018-09-03T20:10:06.860Z,8.00
2018-09-03T20:12:34.636Z,7.86
2018-09-03T20:15:02.408Z,7.77
2018-09-03T20:17:30.123Z,7.69
2018-09-03T20:19:57.858Z,7.64
2018-09-03T20:22:25.566Z,7.60
2018-09-03T20:24:53.267Z,7.57
2018-09-03T20:27:20.952Z,7.49
2018-09-03T20:29:48.666Z,7.49
2018-09-03T20:32:16.347Z,7.45
2018-09-03T20:34:44.028Z,7.41
2018-09-03T20:37:11.707Z,7.36
2018-09-03T20:39:39.472Z,7.37
2018-09-03T20:42:07.404Z,7.35
2018-09-03T20:44:35.151Z,7.31
2018-09-03T20:47:02.908Z,7.21
2018-09-03T20:49:30.611Z,7.14
2018-09-03T20:51:58.324Z,7.09
2018-09-03T20:54:26.005Z,7.02
2018-09-03T20:56:53.775Z,6.94
2018-09-03T20:59:21.503Z,6.86
2018-09-03T21:01:49.196Z,6.80
2018-09-03T21:04:16.965Z,6.80
2018-09-03T21:06:44.740Z,6.81
2018-09-03T21:09:12.441Z,6.84
2018-09-03T21:11:40.147Z,6.79
2018-09-03T21:14:07.901Z,6.71
2018-09-03T21:16:35.551Z,6.69
2018-09-03T21:19:03.492Z,6.66
2018-09-03T21:21:31.331Z,6.65
2018-09-03T21:23:59.099Z,6.68
2018-09-03T21:26:26.797Z,6.72
2018-09-03T21:28:54.488Z,6.78
2018-09-03T21:31:22.164Z,6.82
2018-09-03T21:33:49.853Z,6.88
2018-09-03T21:36:17.525Z,6.94
2018-09-03T21:38:45.213Z,6.99
2018-09-03T21:41:12.996Z,7.09
2018-09-03T21:43:40.694Z,7.17
2018-09-03T21:46:08.763Z,7.28
2018-09-03T21:48:36.469Z,7.42
2018-09-03T21:51:04.171Z,7.45
2018-09-03T21:53:31.928Z,7.45
2018-09-03T21:55:59.745Z,7.47
2018-09-03T21:58:27.711Z,7.53
2018-09-03T22:00:55.428Z,7.56
2018-09-03T22:03:23.120Z,7.66
2018-09-03T22:05:50.807Z,7.68
2018-09-03T22:08:18.537Z,7.73
2018-09-03T22:10:46.224Z,7.79
2018-09-03T22:13:13.902Z,7.90
2018-09-03T22:15:41.620Z,8.02
2018-09-03T22:18:09.859Z,8.11
2018-09-03T22:20:37.904Z,8.13
2018-09-03T22:23:05.820Z,8.16
2018-09-03T22:25:33.500Z,8.20
2018-09-03T22:28:01.267Z,8.25
2018-09-03T22:30:29.116Z,8.29
2018-09-03T22:32:56.788Z,8.35
2018-09-03T22:35:24.493Z,8.40
2018-09-03T22:37:52.288Z,8.48
2018-09-03T22:40:19.947Z,8.57
2018-09-03T22:42:47.607Z,8.64
2018-09-03T22:45:15.364Z,8.70
2018-09-03T22:47:43.040Z,8.77
2018-09-03T22:50:10.756Z,8.86
2018-09-03T22:52:38.435Z,8.90
2018-09-03T22:55:06.229Z,8.94
2018-09-03T22:57:33.912Z,9.02
2018-09-03T23:00:01.656Z,9.10
2018-09-03T23:02:29.443Z,9.16
2018-09-03T23:04:57.176Z,9.17
2018-09-03T23:07:24.889Z,9.21
2018-09-03T23:09:52.567Z,9.28
2018-09-03T23:12:20.253Z,9.32
2018-09-03T23:14:47.959Z,9.42
2018-09-03T23:17:15.655Z,9.49
2018-09-03T23:19:43.364Z,9.54
2018-09-03T23:22:11.089Z,9.58
2018-09-03T23:24:38.776Z,9.64
2018-09-03T23:27:06.462Z,9.70
2018-09-03T23:29:34.237Z,9.75
2018-09-03T23:32:02.161Z,9.80
2018-09-03T23:34:29.844Z,9.85
2018-09-03T23:36:57.528Z,9.88
2018-09-03T23:39:25.215Z,9.94
2018-09-03T23:41:52.910Z,10.02
2018-09-03T23:44:20.673Z,10.08
2018-09-03T23:46:48.368Z,10.13
2018-09-03T23:49:16.064Z,10.20
2018-09-03T23:51:43.735Z,10.31
2018-09-03T23:54:11.512Z,10.40
2018-09-03T23:56:39.235Z,10.54
2018-09-03T23:59:06.975Z,10.73
